sensor_id;sensor_type;location;lat;lon;timestamp;P1;durP1;ratioP1;P2;durP2;ratioP2
69083;SDS011;56185;48.526;9.044;2023-07-09T00:02:00;5.97;;;2.80;;
69083;SDS011;56185;48.526;9.044;2023-07-09T00:04:25;4.50;;;2.80;;
69083;SDS011;56185;48.526;9.044;2023-07-09T00:06:50;6.50;;;2.93;;
69083;SDS011;56185;48.526;9.044;2023-07-09T00:09:17;5.15;;;3.00;;
69083;SDS011;56185;48.526;9.044;2023-07-09T00:11:44;7.18;;;3.10;;
69083;SDS011;56185;48.526;9.044;2023-07-09T00:14:10;6.15;;;3.10;;
69083;SDS011;56185;48.526;9.044;2023-07-09T00:16:37;8.73;;;3.42;;
69083;SDS011;56185;48.526;9.044;2023-07-09T00:19:04;7.07;;;3.17;;
69083;SDS011;56185;48.526;9.044;2023-07-09T00:21:35;5.47;;;2.97;;
69083;SDS011;56185;48.526;9.044;2023-07-09T00:24:00;6.33;;;2.90;;
69083;SDS011;56185;48.526;9.044;2023-07-09T00:26:26;6.50;;;3.28;;
69083;SDS011;56185;48.526;9.044;2023-07-09T00:28:51;5.80;;;3.00;;
69083;SDS011;56185;48.526;9.044;2023-07-09T00:31:16;5.40;;;3.10;;
69083;SDS011;56185;48.526;9.044;2023-07-09T00:33:42;5.57;;;3.17;;
69083;SDS011;56185;48.526;9.044;2023-07-09T00:36:14;6.13;;;3.03;;
69083;SDS011;56185;48.526;9.044;2023-07-09T00:38:40;6.47;;;3.33;;
69083;SDS011;56185;48.526;9.044;2023-07-09T00:41:08;4.95;;;3.10;;
69083;SDS011;56185;48.526;9.044;2023-07-09T00:43:39;7.40;;;3.65;;
69083;SDS011;56185;48.526;9.044;2023-07-09T00:46:14;7.00;;;3.17;;
69083;SDS011;56185;48.526;9.044;2023-07-09T00:48:43;5.35;;;2.78;;
69083;SDS011;56185;48.526;9.044;2023-07-09T00:51:14;5.53;;;3.08;;
69083;SDS011;56185;48.526;9.044;2023-07-09T00:53:42;4.82;;;3.00;;
69083;SDS011;56185;48.526;9.044;2023-07-09T00:56:10;5.75;;;3.20;;
69083;SDS011;56185;48.526;9.044;2023-07-09T00:58:38;5.43;;;3.25;;
69083;SDS011;56185;48.526;9.044;2023-07-09T01:01:05;7.25;;;3.83;;
69083;SDS011;56185;48.526;9.044;2023-07-09T01:03:37;5.32;;;3.17;;
69083;SDS011;56185;48.526;9.044;2023-07-09T01:06:05;5.05;;;3.25;;
69083;SDS011;56185;48.526;9.044;2023-07-09T01:08:31;8.30;;;3.47;;
69083;SDS011;56185;48.526;9.044;2023-07-09T01:10:58;5.32;;;3.05;;
69083;SDS011;56185;48.526;9.044;2023-07-09T01:13:24;6.78;;;3.08;;
69083;SDS011;56185;48.526;9.044;2023-07-09T01:15:50;5.50;;;3.20;;
69083;SDS011;56185;48.526;9.044;2023-07-09T01:18:15;5.93;;;3.40;;
69083;SDS011;56185;48.526;9.044;2023-07-09T01:20:41;5.87;;;3.47;;
69083;SDS011;56185;48.526;9.044;2023-07-09T01:23:07;7.75;;;3.35;;
69083;SDS011;56185;48.526;9.044;2023-07-09T01:25:33;6.35;;;2.85;;
69083;SDS011;56185;48.526;9.044;2023-07-09T01:27:59;5.57;;;3.28;;
69083;SDS011;56185;48.526;9.044;2023-07-09T01:30:29;4.85;;;3.20;;
69083;SDS011;56185;48.526;9.044;2023-07-09T01:32:58;10.75;;;3.63;;
69083;SDS011;56185;48.526;9.044;2023-07-09T01:35:25;5.90;;;3.35;;
69083;SDS011;56185;48.526;9.044;2023-07-09T01:37:50;6.82;;;3.30;;
69083;SDS011;56185;48.526;9.044;2023-07-09T01:40:18;6.13;;;3.53;;
69083;SDS011;56185;48.526;9.044;2023-07-09T01:42:45;5.85;;;3.20;;
69083;SDS011;56185;48.526;9.044;2023-07-09T01:45:11;6.43;;;3.47;;
69083;SDS011;56185;48.526;9.044;2023-07-09T01:47:37;5.45;;;3.10;;
69083;SDS011;56185;48.526;9.044;2023-07-09T01:50:04;8.57;;;3.35;;
69083;SDS011;56185;48.526;9.044;2023-07-09T01:52:31;5.05;;;3.17;;
69083;SDS011;56185;48.526;9.044;2023-07-09T01:54:58;6.93;;;3.47;;
69083;SDS011;56185;48.526;9.044;2023-07-09T01:57:24;6.10;;;3.33;;
69083;SDS011;56185;48.526;9.044;2023-07-09T01:59:54;5.95;;;3.20;;
69083;SDS011;56185;48.526;9.044;2023-07-09T02:02:22;5.35;;;3.10;;
69083;SDS011;56185;48.526;9.044;2023-07-09T02:04:49;6.82;;;3.13;;
69083;SDS011;56185;48.526;9.044;2023-07-09T02:07:16;5.60;;;3.40;;
69083;SDS011;56185;48.526;9.044;2023-07-09T02:09:42;6.35;;;3.53;;
69083;SDS011;56185;48.526;9.044;2023-07-09T02:12:08;7.40;;;3.28;;
69083;SDS011;56185;48.526;9.044;2023-07-09T02:14:34;8.10;;;3.70;;
69083;SDS011;56185;48.526;9.044;2023-07-09T02:16:59;8.95;;;3.28;;
69083;SDS011;56185;48.526;9.044;2023-07-09T02:19:25;7.25;;;3.47;;
69083;SDS011;56185;48.526;9.044;2023-07-09T02:21:50;8.37;;;3.57;;
69083;SDS011;56185;48.526;9.044;2023-07-09T02:24:15;6.85;;;3.53;;
69083;SDS011;56185;48.526;9.044;2023-07-09T02:26:40;5.33;;;3.57;;
69083;SDS011;56185;48.526;9.044;2023-07-09T02:29:06;7.77;;;3.33;;
69083;SDS011;56185;48.526;9.044;2023-07-09T02:31:31;5.78;;;3.20;;
69083;SDS011;56185;48.526;9.044;2023-07-09T02:33:57;5.53;;;3.38;;
69083;SDS011;56185;48.526;9.044;2023-07-09T02:36:23;7.57;;;3.77;;
69083;SDS011;56185;48.526;9.044;2023-07-09T02:38:49;6.70;;;3.58;;
69083;SDS011;56185;48.526;9.044;2023-07-09T02:41:14;7.83;;;3.57;;
69083;SDS011;56185;48.526;9.044;2023-07-09T02:43:39;4.83;;;3.40;;
69083;SDS011;56185;48.526;9.044;2023-07-09T02:46:05;5.90;;;3.50;;
69083;SDS011;56185;48.526;9.044;2023-07-09T02:48:30;5.50;;;3.63;;
69083;SDS011;56185;48.526;9.044;2023-07-09T02:50:55;7.45;;;3.50;;
69083;SDS011;56185;48.526;9.044;2023-07-09T02:53:20;6.40;;;3.70;;
69083;SDS011;56185;48.526;9.044;2023-07-09T02:55:46;7.47;;;3.53;;
69083;SDS011;56185;48.526;9.044;2023-07-09T02:58:11;7.73;;;3.67;;
69083;SDS011;56185;48.526;9.044;2023-07-09T03:00:36;6.53;;;3.50;;
69083;SDS011;56185;48.526;9.044;2023-07-09T03:03:01;6.37;;;3.27;;
69083;SDS011;56185;48.526;9.044;2023-07-09T03:05:27;7.22;;;3.97;;
69083;SDS011;56185;48.526;9.044;2023-07-09T03:07:52;7.47;;;3.73;;
69083;SDS011;56185;48.526;9.044;2023-07-09T03:10:17;5.72;;;3.58;;
69083;SDS011;56185;48.526;9.044;2023-07-09T03:12:42;6.40;;;3.77;;
69083;SDS011;56185;48.526;9.044;2023-07-09T03:15:08;6.00;;;3.23;;
69083;SDS011;56185;48.526;9.044;2023-07-09T03:17:33;6.25;;;3.50;;
69083;SDS011;56185;48.526;9.044;2023-07-09T03:19:59;5.67;;;3.63;;
69083;SDS011;56185;48.526;9.044;2023-07-09T03:22:24;8.83;;;3.70;;
69083;SDS011;56185;48.526;9.044;2023-07-09T03:24:49;5.57;;;3.40;;
69083;SDS011;56185;48.526;9.044;2023-07-09T03:27:14;6.78;;;3.67;;
69083;SDS011;56185;48.526;9.044;2023-07-09T03:29:40;7.00;;;3.67;;
69083;SDS011;56185;48.526;9.044;2023-07-09T03:32:05;5.13;;;3.70;;
69083;SDS011;56185;48.526;9.044;2023-07-09T03:34:30;6.72;;;3.83;;
69083;SDS011;56185;48.526;9.044;2023-07-09T03:36:56;8.13;;;4.27;;
69083;SDS011;56185;48.526;9.044;2023-07-09T03:39:21;7.40;;;3.67;;
69083;SDS011;56185;48.526;9.044;2023-07-09T03:41:46;7.43;;;3.90;;
69083;SDS011;56185;48.526;9.044;2023-07-09T03:44:11;7.40;;;3.50;;
69083;SDS011;56185;48.526;9.044;2023-07-09T03:46:37;7.60;;;3.80;;
69083;SDS011;56185;48.526;9.044;2023-07-09T03:49:02;9.30;;;3.97;;
69083;SDS011;56185;48.526;9.044;2023-07-09T03:51:27;7.20;;;3.80;;
69083;SDS011;56185;48.526;9.044;2023-07-09T03:53:53;6.70;;;3.77;;
69083;SDS011;56185;48.526;9.044;2023-07-09T03:56:18;6.00;;;3.77;;
69083;SDS011;56185;48.526;9.044;2023-07-09T03:58:43;5.87;;;3.80;;
69083;SDS011;56185;48.526;9.044;2023-07-09T04:01:08;7.77;;;3.97;;
69083;SDS011;56185;48.526;9.044;2023-07-09T04:03:34;9.17;;;3.80;;
69083;SDS011;56185;48.526;9.044;2023-07-09T04:05:59;5.00;;;3.43;;
69083;SDS011;56185;48.526;9.044;2023-07-09T04:08:24;6.10;;;3.60;;
69083;SDS011;56185;48.526;9.044;2023-07-09T04:10:49;7.60;;;4.00;;
69083;SDS011;56185;48.526;9.044;2023-07-09T04:13:15;8.13;;;3.57;;
69083;SDS011;56185;48.526;9.044;2023-07-09T04:15:40;6.87;;;4.13;;
69083;SDS011;56185;48.526;9.044;2023-07-09T04:18:05;8.07;;;4.03;;
69083;SDS011;56185;48.526;9.044;2023-07-09T04:20:30;6.97;;;3.92;;
69083;SDS011;56185;48.526;9.044;2023-07-09T04:22:56;5.60;;;3.90;;
69083;SDS011;56185;48.526;9.044;2023-07-09T04:25:21;5.40;;;3.97;;
69083;SDS011;56185;48.526;9.044;2023-07-09T04:27:46;9.93;;;4.17;;
69083;SDS011;56185;48.526;9.044;2023-07-09T04:30:12;8.87;;;4.10;;
69083;SDS011;56185;48.526;9.044;2023-07-09T04:32:39;8.30;;;4.40;;
69083;SDS011;56185;48.526;9.044;2023-07-09T04:35:04;8.93;;;4.35;;
69083;SDS011;56185;48.526;9.044;2023-07-09T04:37:29;6.15;;;3.97;;
69083;SDS011;56185;48.526;9.044;2023-07-09T04:39:55;6.83;;;4.07;;
69083;SDS011;56185;48.526;9.044;2023-07-09T04:42:20;6.83;;;4.00;;
69083;SDS011;56185;48.526;9.044;2023-07-09T04:44:45;7.77;;;4.10;;
69083;SDS011;56185;48.526;9.044;2023-07-09T04:47:11;6.72;;;4.15;;
69083;SDS011;56185;48.526;9.044;2023-07-09T04:49:36;6.03;;;4.00;;
69083;SDS011;56185;48.526;9.044;2023-07-09T04:52:01;7.00;;;3.92;;
69083;SDS011;56185;48.526;9.044;2023-07-09T04:54:27;8.50;;;3.90;;
69083;SDS011;56185;48.526;9.044;2023-07-09T04:56:52;9.38;;;4.03;;
69083;SDS011;56185;48.526;9.044;2023-07-09T04:59:18;7.28;;;4.15;;
69083;SDS011;56185;48.526;9.044;2023-07-09T05:01:43;7.50;;;4.13;;
69083;SDS011;56185;48.526;9.044;2023-07-09T05:04:09;7.25;;;4.05;;
69083;SDS011;56185;48.526;9.044;2023-07-09T05:06:34;9.10;;;4.33;;
69083;SDS011;56185;48.526;9.044;2023-07-09T05:08:59;5.90;;;4.05;;
69083;SDS011;56185;48.526;9.044;2023-07-09T05:11:25;8.93;;;4.33;;
69083;SDS011;56185;48.526;9.044;2023-07-09T05:13:50;5.63;;;3.93;;
69083;SDS011;56185;48.526;9.044;2023-07-09T05:16:17;7.05;;;3.95;;
69083;SDS011;56185;48.526;9.044;2023-07-09T05:18:44;8.98;;;4.30;;
69083;SDS011;56185;48.526;9.044;2023-07-09T05:21:10;6.78;;;4.10;;
69083;SDS011;56185;48.526;9.044;2023-07-09T05:23:35;8.40;;;4.27;;
69083;SDS011;56185;48.526;9.044;2023-07-09T05:26:01;11.02;;;4.80;;
69083;SDS011;56185;48.526;9.044;2023-07-09T05:28:28;6.60;;;4.15;;
69083;SDS011;56185;48.526;9.044;2023-07-09T05:30:54;6.70;;;4.35;;
69083;SDS011;56185;48.526;9.044;2023-07-09T05:33:20;8.50;;;4.35;;
69083;SDS011;56185;48.526;9.044;2023-07-09T05:35:45;9.50;;;4.20;;
69083;SDS011;56185;48.526;9.044;2023-07-09T05:38:12;7.53;;;4.28;;
69083;SDS011;56185;48.526;9.044;2023-07-09T05:40:38;6.28;;;4.20;;
69083;SDS011;56185;48.526;9.044;2023-07-09T05:43:03;7.80;;;4.30;;
69083;SDS011;56185;48.526;9.044;2023-07-09T05:45:29;7.53;;;4.30;;
69083;SDS011;56185;48.526;9.044;2023-07-09T05:47:57;7.95;;;4.70;;
69083;SDS011;56185;48.526;9.044;2023-07-09T05:50:23;8.00;;;4.22;;
69083;SDS011;56185;48.526;9.044;2023-07-09T05:52:49;7.00;;;4.45;;
69083;SDS011;56185;48.526;9.044;2023-07-09T05:55:14;6.90;;;4.10;;
69083;SDS011;56185;48.526;9.044;2023-07-09T05:57:40;8.43;;;4.45;;
69083;SDS011;56185;48.526;9.044;2023-07-09T06:00:05;8.60;;;4.35;;
69083;SDS011;56185;48.526;9.044;2023-07-09T06:02:31;7.13;;;4.25;;
69083;SDS011;56185;48.526;9.044;2023-07-09T06:04:57;8.43;;;4.25;;
69083;SDS011;56185;48.526;9.044;2023-07-09T06:07:22;7.57;;;4.28;;
69083;SDS011;56185;48.526;9.044;2023-07-09T06:09:47;8.03;;;4.27;;
69083;SDS011;56185;48.526;9.044;2023-07-09T06:12:13;6.53;;;4.22;;
69083;SDS011;56185;48.526;9.044;2023-07-09T06:14:38;7.55;;;4.32;;
69083;SDS011;56185;48.526;9.044;2023-07-09T06:17:03;7.07;;;4.32;;
69083;SDS011;56185;48.526;9.044;2023-07-09T06:19:29;6.47;;;4.07;;
69083;SDS011;56185;48.526;9.044;2023-07-09T06:21:54;6.57;;;4.40;;
69083;SDS011;56185;48.526;9.044;2023-07-09T06:24:20;6.28;;;4.35;;
69083;SDS011;56185;48.526;9.044;2023-07-09T06:26:45;6.83;;;4.00;;
69083;SDS011;56185;48.526;9.044;2023-07-09T06:29:10;7.57;;;4.63;;
69083;SDS011;56185;48.526;9.044;2023-07-09T06:31:35;7.82;;;3.88;;
69083;SDS011;56185;48.526;9.044;2023-07-09T06:34:00;7.97;;;4.27;;
69083;SDS011;56185;48.526;9.044;2023-07-09T06:36:26;8.57;;;4.20;;
69083;SDS011;56185;48.526;9.044;2023-07-09T06:38:51;6.53;;;4.32;;
69083;SDS011;56185;48.526;9.044;2023-07-09T06:41:16;6.93;;;4.17;;
69083;SDS011;56185;48.526;9.044;2023-07-09T06:43:42;6.35;;;4.07;;
69083;SDS011;56185;48.526;9.044;2023-07-09T06:46:09;6.35;;;4.20;;
69083;SDS011;56185;48.526;9.044;2023-07-09T06:48:36;7.15;;;4.35;;
69083;SDS011;56185;48.526;9.044;2023-07-09T06:51:01;6.60;;;3.73;;
69083;SDS011;56185;48.526;9.044;2023-07-09T06:53:27;7.75;;;3.92;;
69083;SDS011;56185;48.526;9.044;2023-07-09T06:55:53;6.97;;;4.13;;
69083;SDS011;56185;48.526;9.044;2023-07-09T06:58:20;8.23;;;3.90;;
69083;SDS011;56185;48.526;9.044;2023-07-09T07:00:45;6.07;;;4.00;;
69083;SDS011;56185;48.526;9.044;2023-07-09T07:03:14;8.00;;;3.70;;
69083;SDS011;56185;48.526;9.044;2023-07-09T07:05:44;6.10;;;3.72;;
69083;SDS011;56185;48.526;9.044;2023-07-09T07:08:10;6.15;;;4.00;;
69083;SDS011;56185;48.526;9.044;2023-07-09T07:10:35;7.45;;;4.10;;
69083;SDS011;56185;48.526;9.044;2023-07-09T07:13:01;5.43;;;4.13;;
69083;SDS011;56185;48.526;9.044;2023-07-09T07:15:26;7.13;;;3.87;;
69083;SDS011;56185;48.526;9.044;2023-07-09T07:17:51;9.83;;;4.00;;
69083;SDS011;56185;48.526;9.044;2023-07-09T07:20:17;8.67;;;4.10;;
69083;SDS011;56185;48.526;9.044;2023-07-09T07:22:43;7.13;;;4.03;;
69083;SDS011;56185;48.526;9.044;2023-07-09T07:25:08;7.80;;;3.97;;
69083;SDS011;56185;48.526;9.044;2023-07-09T07:27:34;6.35;;;4.07;;
69083;SDS011;56185;48.526;9.044;2023-07-09T07:30:01;8.15;;;3.80;;
69083;SDS011;56185;48.526;9.044;2023-07-09T07:32:27;7.20;;;3.92;;
69083;SDS011;56185;48.526;9.044;2023-07-09T07:34:52;6.95;;;3.95;;
69083;SDS011;56185;48.526;9.044;2023-07-09T07:37:18;6.60;;;3.90;;
69083;SDS011;56185;48.526;9.044;2023-07-09T07:39:43;5.97;;;4.05;;
69083;SDS011;56185;48.526;9.044;2023-07-09T07:42:09;6.30;;;3.60;;
69083;SDS011;56185;48.526;9.044;2023-07-09T07:44:34;5.27;;;3.90;;
69083;SDS011;56185;48.526;9.044;2023-07-09T07:46:59;5.97;;;3.75;;
69083;SDS011;56185;48.526;9.044;2023-07-09T07:49:25;8.10;;;3.87;;
69083;SDS011;56185;48.526;9.044;2023-07-09T07:51:50;7.37;;;3.90;;
69083;SDS011;56185;48.526;9.044;2023-07-09T07:54:15;6.63;;;3.70;;
69083;SDS011;56185;48.526;9.044;2023-07-09T07:56:43;10.07;;;4.27;;
69083;SDS011;56185;48.526;9.044;2023-07-09T07:59:09;5.90;;;3.63;;
69083;SDS011;56185;48.526;9.044;2023-07-09T08:01:34;5.18;;;3.72;;
69083;SDS011;56185;48.526;9.044;2023-07-09T08:04:00;7.03;;;3.87;;
69083;SDS011;56185;48.526;9.044;2023-07-09T08:06:25;5.55;;;3.80;;
69083;SDS011;56185;48.526;9.044;2023-07-09T08:08:51;6.38;;;3.85;;
69083;SDS011;56185;48.526;9.044;2023-07-09T08:11:16;8.17;;;4.00;;
69083;SDS011;56185;48.526;9.044;2023-07-09T08:13:41;5.55;;;3.65;;
69083;SDS011;56185;48.526;9.044;2023-07-09T08:16:07;5.43;;;3.40;;
69083;SDS011;56185;48.526;9.044;2023-07-09T08:18:33;5.07;;;3.70;;
69083;SDS011;56185;48.526;9.044;2023-07-09T08:21:01;4.45;;;3.45;;
69083;SDS011;56185;48.526;9.044;2023-07-09T08:23:26;6.55;;;3.65;;
69083;SDS011;56185;48.526;9.044;2023-07-09T08:25:52;7.00;;;3.45;;
69083;SDS011;56185;48.526;9.044;2023-07-09T08:28:21;6.28;;;3.70;;
69083;SDS011;56185;48.526;9.044;2023-07-09T08:30:47;7.95;;;3.55;;
69083;SDS011;56185;48.526;9.044;2023-07-09T08:33:12;9.00;;;3.40;;
69083;SDS011;56185;48.526;9.044;2023-07-09T08:35:38;5.37;;;3.50;;
69083;SDS011;56185;48.526;9.044;2023-07-09T08:38:06;5.03;;;3.30;;
69083;SDS011;56185;48.526;9.044;2023-07-09T08:40:31;5.57;;;3.13;;
69083;SDS011;56185;48.526;9.044;2023-07-09T08:43:02;5.10;;;3.10;;
69083;SDS011;56185;48.526;9.044;2023-07-09T08:49:11;4.88;;;2.97;;
69083;SDS011;56185;48.526;9.044;2023-07-09T08:51:43;5.85;;;3.40;;
69083;SDS011;56185;48.526;9.044;2023-07-09T08:54:13;5.22;;;2.88;;
69083;SDS011;56185;48.526;9.044;2023-07-09T08:56:50;6.28;;;2.97;;
69083;SDS011;56185;48.526;9.044;2023-07-09T08:59:15;4.72;;;2.30;;
69083;SDS011;56185;48.526;9.044;2023-07-09T09:01:47;6.50;;;2.83;;
69083;SDS011;56185;48.526;9.044;2023-07-09T09:04:24;4.50;;;2.93;;
69083;SDS011;56185;48.526;9.044;2023-07-09T09:06:57;4.85;;;2.90;;
69083;SDS011;56185;48.526;9.044;2023-07-09T09:09:40;5.10;;;2.80;;
69083;SDS011;56185;48.526;9.044;2023-07-09T09:12:18;5.75;;;3.00;;
69083;SDS011;56185;48.526;9.044;2023-07-09T09:14:58;5.38;;;2.70;;
69083;SDS011;56185;48.526;9.044;2023-07-09T09:17:26;5.28;;;2.90;;
69083;SDS011;56185;48.526;9.044;2023-07-09T09:19:55;7.35;;;2.90;;
69083;SDS011;56185;48.526;9.044;2023-07-09T09:22:25;5.57;;;2.40;;
69083;SDS011;56185;48.526;9.044;2023-07-09T09:27:38;5.43;;;2.83;;
69083;SDS011;56185;48.526;9.044;2023-07-09T09:30:04;5.40;;;2.40;;
69083;SDS011;56185;48.526;9.044;2023-07-09T09:32:40;4.43;;;2.38;;
69083;SDS011;56185;48.526;9.044;2023-07-09T09:35:15;4.30;;;2.50;;
69083;SDS011;56185;48.526;9.044;2023-07-09T09:38:00;7.35;;;3.00;;
69083;SDS011;56185;48.526;9.044;2023-07-09T09:40:28;6.07;;;2.50;;
69083;SDS011;56185;48.526;9.044;2023-07-09T09:42:58;4.53;;;2.63;;
69083;SDS011;56185;48.526;9.044;2023-07-09T09:45:28;5.82;;;2.55;;
69083;SDS011;56185;48.526;9.044;2023-07-09T09:48:10;5.90;;;2.33;;
69083;SDS011;56185;48.526;9.044;2023-07-09T09:50:39;4.55;;;2.83;;
69083;SDS011;56185;48.526;9.044;2023-07-09T09:53:06;4.80;;;2.55;;
69083;SDS011;56185;48.526;9.044;2023-07-09T09:55:33;5.82;;;2.70;;
69083;SDS011;56185;48.526;9.044;2023-07-09T09:57:58;3.67;;;2.10;;
69083;SDS011;56185;48.526;9.044;2023-07-09T10:00:25;6.10;;;2.55;;
69083;SDS011;56185;48.526;9.044;2023-07-09T10:02:58;5.63;;;2.42;;
69083;SDS011;56185;48.526;9.044;2023-07-09T10:05:34;4.07;;;2.43;;
69083;SDS011;56185;48.526;9.044;2023-07-09T10:08:09;6.38;;;2.35;;
69083;SDS011;56185;48.526;9.044;2023-07-09T10:10:59;5.75;;;2.70;;
69083;SDS011;56185;48.526;9.044;2023-07-09T10:13:46;5.28;;;2.40;;
69083;SDS011;56185;48.526;9.044;2023-07-09T10:21:54;3.75;;;2.40;;
69083;SDS011;56185;48.526;9.044;2023-07-09T10:27:12;3.73;;;2.40;;
69083;SDS011;56185;48.526;9.044;2023-07-09T10:38:32;4.32;;;2.65;;
69083;SDS011;56185;48.526;9.044;2023-07-09T10:41:14;5.55;;;2.70;;
69083;SDS011;56185;48.526;9.044;2023-07-09T10:43:44;4.65;;;2.50;;
69083;SDS011;56185;48.526;9.044;2023-07-09T10:46:17;6.05;;;2.50;;
69083;SDS011;56185;48.526;9.044;2023-07-09T10:48:50;5.20;;;2.80;;
69083;SDS011;56185;48.526;9.044;2023-07-09T10:51:18;5.10;;;2.60;;
69083;SDS011;56185;48.526;9.044;2023-07-09T10:53:56;4.18;;;2.47;;
69083;SDS011;56185;48.526;9.044;2023-07-09T10:56:27;5.18;;;2.40;;
69083;SDS011;56185;48.526;9.044;2023-07-09T11:01:47;5.03;;;2.65;;
69083;SDS011;56185;48.526;9.044;2023-07-09T11:04:29;5.35;;;2.63;;
69083;SDS011;56185;48.526;9.044;2023-07-09T11:07:01;5.53;;;2.63;;
69083;SDS011;56185;48.526;9.044;2023-07-09T11:09:35;6.65;;;2.40;;
69083;SDS011;56185;48.526;9.044;2023-07-09T11:12:08;7.43;;;2.63;;
69083;SDS011;56185;48.526;9.044;2023-07-09T11:14:57;5.88;;;2.60;;
69083;SDS011;56185;48.526;9.044;2023-07-09T11:17:25;6.07;;;2.92;;
69083;SDS011;56185;48.526;9.044;2023-07-09T11:19:54;6.03;;;2.90;;
69083;SDS011;56185;48.526;9.044;2023-07-09T11:22:21;6.47;;;2.53;;
69083;SDS011;56185;48.526;9.044;2023-07-09T11:25:09;7.70;;;2.70;;
69083;SDS011;56185;48.526;9.044;2023-07-09T11:27:49;10.95;;;2.80;;
69083;SDS011;56185;48.526;9.044;2023-07-09T11:30:19;5.60;;;2.88;;
69083;SDS011;56185;48.526;9.044;2023-07-09T11:32:46;5.00;;;2.70;;
69083;SDS011;56185;48.526;9.044;2023-07-09T11:35:20;4.35;;;2.67;;
69083;SDS011;56185;48.526;9.044;2023-07-09T11:37:46;4.65;;;2.60;;
69083;SDS011;56185;48.526;9.044;2023-07-09T11:40:12;4.85;;;2.70;;
69083;SDS011;56185;48.526;9.044;2023-07-09T11:42:54;5.40;;;2.67;;
69083;SDS011;56185;48.526;9.044;2023-07-09T11:45:26;5.10;;;2.93;;
69083;SDS011;56185;48.526;9.044;2023-07-09T11:48:09;5.10;;;2.70;;
69083;SDS011;56185;48.526;9.044;2023-07-09T11:50:48;5.80;;;2.50;;
69083;SDS011;56185;48.526;9.044;2023-07-09T11:56:02;4.07;;;2.42;;
69083;SDS011;56185;48.526;9.044;2023-07-09T11:58:29;4.78;;;2.80;;
69083;SDS011;56185;48.526;9.044;2023-07-09T12:00:54;4.57;;;2.80;;
69083;SDS011;56185;48.526;9.044;2023-07-09T12:03:23;4.72;;;2.25;;
69083;SDS011;56185;48.526;9.044;2023-07-09T12:05:55;5.88;;;2.55;;
69083;SDS011;56185;48.526;9.044;2023-07-09T12:08:34;3.97;;;2.50;;
69083;SDS011;56185;48.526;9.044;2023-07-09T12:11:01;5.82;;;2.45;;
69083;SDS011;56185;48.526;9.044;2023-07-09T12:13:27;5.80;;;2.78;;
69083;SDS011;56185;48.526;9.044;2023-07-09T12:15:52;5.87;;;2.30;;
69083;SDS011;56185;48.526;9.044;2023-07-09T12:18:17;3.75;;;2.20;;
69083;SDS011;56185;48.526;9.044;2023-07-09T12:20:50;4.13;;;2.53;;
69083;SDS011;56185;48.526;9.044;2023-07-09T12:23:31;4.63;;;2.15;;
69083;SDS011;56185;48.526;9.044;2023-07-09T12:26:01;6.68;;;2.70;;
69083;SDS011;56185;48.526;9.044;2023-07-09T12:28:28;6.00;;;2.58;;
69083;SDS011;56185;48.526;9.044;2023-07-09T12:30:54;6.30;;;2.40;;
69083;SDS011;56185;48.526;9.044;2023-07-09T12:33:24;5.95;;;2.40;;
69083;SDS011;56185;48.526;9.044;2023-07-09T12:35:58;3.75;;;2.20;;
69083;SDS011;56185;48.526;9.044;2023-07-09T12:38:26;4.60;;;2.60;;
69083;SDS011;56185;48.526;9.044;2023-07-09T12:40:55;5.85;;;2.50;;
69083;SDS011;56185;48.526;9.044;2023-07-09T12:43:31;7.45;;;2.60;;
69083;SDS011;56185;48.526;9.044;2023-07-09T12:45:59;4.15;;;2.17;;
69083;SDS011;56185;48.526;9.044;2023-07-09T12:48:26;7.38;;;2.38;;
69083;SDS011;56185;48.526;9.044;2023-07-09T12:50:56;4.30;;;2.20;;
69083;SDS011;56185;48.526;9.044;2023-07-09T12:53:23;4.25;;;2.20;;
69083;SDS011;56185;48.526;9.044;2023-07-09T12:55:50;4.80;;;2.25;;
69083;SDS011;56185;48.526;9.044;2023-07-09T12:58:25;3.40;;;2.10;;
69083;SDS011;56185;48.526;9.044;2023-07-09T13:00:54;6.50;;;2.25;;
69083;SDS011;56185;48.526;9.044;2023-07-09T13:03:21;5.72;;;2.55;;
69083;SDS011;56185;48.526;9.044;2023-07-09T13:06:00;5.78;;;2.30;;
69083;SDS011;56185;48.526;9.044;2023-07-09T13:08:28;4.72;;;2.30;;
69083;SDS011;56185;48.526;9.044;2023-07-09T13:10:55;4.15;;;2.20;;
69083;SDS011;56185;48.526;9.044;2023-07-09T13:13:21;4.93;;;2.20;;
69083;SDS011;56185;48.526;9.044;2023-07-09T13:15:52;4.25;;;2.00;;
69083;SDS011;56185;48.526;9.044;2023-07-09T13:18:20;3.57;;;1.90;;
69083;SDS011;56185;48.526;9.044;2023-07-09T13:20:46;3.60;;;2.10;;
69083;SDS011;56185;48.526;9.044;2023-07-09T13:23:12;3.92;;;2.10;;
69083;SDS011;56185;48.526;9.044;2023-07-09T13:25:39;5.78;;;2.45;;
69083;SDS011;56185;48.526;9.044;2023-07-09T13:28:07;4.25;;;2.47;;
69083;SDS011;56185;48.526;9.044;2023-07-09T13:30:39;4.22;;;2.28;;
69083;SDS011;56185;48.526;9.044;2023-07-09T13:33:07;4.17;;;2.10;;
69083;SDS011;56185;48.526;9.044;2023-07-09T13:35:33;5.45;;;2.30;;
69083;SDS011;56185;48.526;9.044;2023-07-09T13:37:59;4.37;;;2.00;;
69083;SDS011;56185;48.526;9.044;2023-07-09T13:40:24;4.63;;;1.98;;
69083;SDS011;56185;48.526;9.044;2023-07-09T13:42:50;4.25;;;2.10;;
69083;SDS011;56185;48.526;9.044;2023-07-09T13:45:20;4.50;;;2.17;;
69083;SDS011;56185;48.526;9.044;2023-07-09T13:48:22;4.43;;;2.20;;
69083;SDS011;56185;48.526;9.044;2023-07-09T13:50:48;4.93;;;2.30;;
69083;SDS011;56185;48.526;9.044;2023-07-09T13:53:22;5.88;;;2.60;;
69083;SDS011;56185;48.526;9.044;2023-07-09T13:55:50;4.95;;;2.05;;
69083;SDS011;56185;48.526;9.044;2023-07-09T14:06:51;4.95;;;2.45;;
69083;SDS011;56185;48.526;9.044;2023-07-09T14:09:19;5.03;;;2.40;;
69083;SDS011;56185;48.526;9.044;2023-07-09T14:18:04;4.07;;;2.20;;
69083;SDS011;56185;48.526;9.044;2023-07-09T14:20:36;4.05;;;2.35;;
69083;SDS011;56185;48.526;9.044;2023-07-09T14:23:07;4.85;;;2.10;;
69083;SDS011;56185;48.526;9.044;2023-07-09T14:25:43;5.07;;;2.20;;
69083;SDS011;56185;48.526;9.044;2023-07-09T14:28:21;3.47;;;2.28;;
69083;SDS011;56185;48.526;9.044;2023-07-09T14:30:48;4.78;;;2.30;;
69083;SDS011;56185;48.526;9.044;2023-07-09T14:33:15;5.93;;;2.20;;
69083;SDS011;56185;48.526;9.044;2023-07-09T14:35:42;6.25;;;2.55;;
69083;SDS011;56185;48.526;9.044;2023-07-09T14:38:15;3.42;;;2.20;;
69083;SDS011;56185;48.526;9.044;2023-07-09T14:40:46;5.32;;;2.10;;
69083;SDS011;56185;48.526;9.044;2023-07-09T14:43:12;4.60;;;2.20;;
69083;SDS011;56185;48.526;9.044;2023-07-09T14:45:38;5.43;;;2.40;;
69083;SDS011;56185;48.526;9.044;2023-07-09T14:48:14;6.57;;;2.30;;
69083;SDS011;56185;48.526;9.044;2023-07-09T14:50:44;5.88;;;2.50;;
69083;SDS011;56185;48.526;9.044;2023-07-09T14:53:19;3.55;;;2.22;;
69083;SDS011;56185;48.526;9.044;2023-07-09T14:55:46;3.83;;;2.30;;
69083;SDS011;56185;48.526;9.044;2023-07-09T14:58:19;5.40;;;2.40;;
69083;SDS011;56185;48.526;9.044;2023-07-09T15:00:46;5.32;;;2.20;;
69083;SDS011;56185;48.526;9.044;2023-07-09T15:03:19;4.65;;;2.50;;
69083;SDS011;56185;48.526;9.044;2023-07-09T15:05:46;3.28;;;2.15;;
69083;SDS011;56185;48.526;9.044;2023-07-09T15:08:13;4.80;;;2.50;;
69083;SDS011;56185;48.526;9.044;2023-07-09T15:10:39;5.03;;;2.17;;
69083;SDS011;56185;48.526;9.044;2023-07-09T15:13:05;4.55;;;2.45;;
69083;SDS011;56185;48.526;9.044;2023-07-09T15:15:40;4.13;;;2.03;;
69083;SDS011;56185;48.526;9.044;2023-07-09T15:18:09;5.23;;;2.50;;
69083;SDS011;56185;48.526;9.044;2023-07-09T15:20:36;5.40;;;2.30;;
69083;SDS011;56185;48.526;9.044;2023-07-09T15:23:02;5.55;;;2.60;;
69083;SDS011;56185;48.526;9.044;2023-07-09T15:25:28;4.10;;;2.20;;
69083;SDS011;56185;48.526;9.044;2023-07-09T15:27:54;6.05;;;2.47;;
69083;SDS011;56185;48.526;9.044;2023-07-09T15:30:29;5.18;;;2.47;;
69083;SDS011;56185;48.526;9.044;2023-07-09T15:32:56;3.45;;;2.10;;
69083;SDS011;56185;48.526;9.044;2023-07-09T15:35:23;3.78;;;2.10;;
69083;SDS011;56185;48.526;9.044;2023-07-09T15:37:51;3.65;;;2.28;;